Time;durP1;ratioP1;P1;durP2;ratioP2;P2;SDS_P1;SDS_P2;PMS_P1;PMS_P2;Temp;Humidity;BMP_temperature;BMP_pressure;BME280_temperature;BME280_humidity;BME280_pressure;Samples;Min_cycle;Max_cycle;Signal;HPM_P1;HPM_P2
2021/12/28 00:02:26;;;;;;;1.60;1.47;;;;;;;3.80;100.00;95094.38;4924825;29;20204;-87
2021/12/28 00:04:54;;;;;;;2.10;1.50;;;;;;;3.84;100.00;95092.09;4915287;29;20223;-88
2021/12/28 00:07:21;;;;;;;2.00;1.40;;;;;;;3.80;100.00;95094.38;4926963;29;20206;-87
2021/12/28 00:09:48;;;;;;;1.60;1.40;;;;;;;3.76;100.00;95096.66;4914529;29;20226;-88
2021/12/28 00:12:15;;;;;;;2.83;2.33;;;;;;;3.77;100.00;95084.13;4923975;29;20309;-87
2021/12/28 00:14:51;;;;;;;1.83;1.50;;;;;;;3.66;100.00;95087.50;4923408;29;20305;-87
2021/12/28 00:20:04;;;;;;;1.67;1.57;;;;;;;3.57;100.00;95100.34;4918534;29;20210;-88
2021/12/28 00:22:31;;;;;;;1.73;1.37;;;;;;;3.59;100.00;95084.09;4923925;29;20219;-88
2021/12/28 00:24:59;;;;;;;1.40;1.23;;;;;;;3.51;100.00;95074.50;4923279;29;20202;-87
2021/12/28 00:27:26;;;;;;;2.17;1.40;;;;;;;3.46;100.00;95071.69;4923381;29;20237;-88
2021/12/28 00:29:53;;;;;;;1.87;1.37;;;;;;;3.46;100.00;95070.84;4924264;29;20257;-87
2021/12/28 00:32:20;;;;;;;1.00;0.90;;;;;;;3.42;100.00;95054.44;4920331;29;20480;-88
2021/12/28 00:34:47;;;;;;;0.80;0.80;;;;;;;3.42;100.00;95051.78;4922851;28;20210;-88
2021/12/28 00:37:16;;;;;;;1.30;1.20;;;;;;;3.42;100.00;95049.13;4930023;29;20217;-88
2021/12/28 00:39:43;;;;;;;1.23;1.13;;;;;;;3.40;100.00;95045.88;4927691;29;20300;-87
2021/12/28 00:42:10;;;;;;;2.50;1.30;;;;;;;3.44;100.00;95063.06;4927431;29;20292;-87
2021/12/28 00:44:37;;;;;;;2.13;1.40;;;;;;;3.41;100.00;95052.81;4936299;28;20210;-87
2021/12/28 00:47:05;;;;;;;1.50;1.40;;;;;;;3.39;100.00;95052.25;4925679;29;20214;-88
2021/12/28 00:49:32;;;;;;;1.60;1.40;;;;;;;3.42;100.00;95054.44;4942422;28;20233;-87
2021/12/28 00:51:59;;;;;;;1.40;1.30;;;;;;;3.35;100.00;95049.19;4927713;29;20218;-88
2021/12/28 00:54:28;;;;;;;1.30;1.20;;;;;;;3.30;100.00;95046.34;4927751;28;20268;-87
2021/12/28 00:56:55;;;;;;;1.80;1.40;;;;;;;3.29;100.00;95044.72;4927450;29;20206;-87
2021/12/28 00:59:22;;;;;;;1.63;1.33;;;;;;;3.30;100.00;95040.19;4921419;29;20246;-88
2021/12/28 01:01:49;;;;;;;1.53;1.43;;;;;;;3.28;100.00;95036.94;4924229;29;20302;-87
2021/12/28 01:04:17;;;;;;;2.47;1.70;;;;;;;3.21;100.00;95036.16;4930380;29;20216;-87
2021/12/28 01:06:44;;;;;;;1.97;1.50;;;;;;;3.26;100.00;95036.31;4925178;29;20199;-87
2021/12/28 01:09:11;;;;;;;1.97;1.60;;;;;;;3.18;100.00;95015.25;4928643;29;20209;-87
2021/12/28 01:11:39;;;;;;;1.50;1.30;;;;;;;3.17;100.00;95013.59;4929591;29;20305;-87
2021/12/28 01:14:07;;;;;;;2.83;1.60;;;;;;;3.16;100.00;95018.13;4925935;29;20213;-87
2021/12/28 01:16:34;;;;;;;2.67;1.60;;;;;;;3.21;100.00;95014.81;4932743;29;20527;-87
2021/12/28 01:19:01;;;;;;;2.13;1.20;;;;;;;3.17;100.00;95011.75;4941493;29;20213;-88
2021/12/28 01:21:28;;;;;;;2.73;1.47;;;;;;;3.17;100.00;95002.94;4933103;29;20308;-87
2021/12/28 01:23:55;;;;;;;2.20;1.60;;;;;;;3.14;100.00;94982.06;4926437;29;20301;-87
2021/12/28 01:26:22;;;;;;;2.20;1.50;;;;;;;3.18;100.00;94973.41;4928990;29;20201;-88
2021/12/28 01:28:50;;;;;;;1.63;1.50;;;;;;;3.23;100.00;94976.22;4931231;29;20268;-87
2021/12/28 01:31:17;;;;;;;4.03;1.60;;;;;;;3.24;100.00;94971.69;4933534;29;20210;-87
2021/12/28 01:33:45;;;;;;;1.73;1.53;;;;;;;3.23;100.00;94948.75;4926799;29;20234;-88
2021/12/28 01:36:12;;;;;;;1.80;1.40;;;;;;;3.25;100.00;94936.81;4924198;29;20257;-87
2021/12/28 01:38:39;;;;;;;1.73;1.50;;;;;;;3.26;100.00;94945.63;4943258;29;20210;-88
2021/12/28 01:41:09;;;;;;;1.73;1.50;;;;;;;3.22;100.00;94945.25;4929269;29;20245;-87
2021/12/28 01:43:37;;;;;;;1.57;1.33;;;;;;;3.20;100.00;94938.50;4930817;29;20216;-88
2021/12/28 01:46:06;;;;;;;2.60;1.60;;;;;;;3.22;100.00;94931.94;4941439;28;20210;-87
2021/12/28 01:48:37;;;;;;;2.00;1.50;;;;;;;3.21;100.00;94921.47;4925343;29;20229;-87
2021/12/28 01:51:07;;;;;;;1.90;1.70;;;;;;;3.21;100.00;94926.81;4927121;29;20305;-87
2021/12/28 01:53:35;;;;;;;1.30;1.20;;;;;;;3.36;100.00;94912.09;4930204;29;20259;-87
2021/12/28 01:56:05;;;;;;;1.33;0.97;;;;;;;3.32;100.00;94896.72;4942460;28;20206;-88
2021/12/28 01:58:32;;;;;;;1.60;1.27;;;;;;;3.32;100.00;94894.06;4929203;29;20224;-88
2021/12/28 02:01:00;;;;;;;1.67;1.20;;;;;;;3.29;100.00;94894.50;4920973;29;20217;-88
2021/12/28 02:03:31;;;;;;;1.20;1.00;;;;;;;3.25;100.00;94883.47;4931448;29;20216;-88
2021/12/28 02:05:58;;;;;;;1.03;0.97;;;;;;;3.28;100.00;94882.22;4932495;29;20217;-87
2021/12/28 02:08:25;;;;;;;1.50;1.20;;;;;;;3.24;100.00;94875.66;4925375;29;20205;-88
2021/12/28 02:10:56;;;;;;;1.50;1.27;;;;;;;3.21;100.00;94868.94;4925477;29;20236;-87
2021/12/28 02:13:24;;;;;;;1.03;0.93;;;;;;;3.20;100.00;94869.16;4921682;29;20240;-87
2021/12/28 02:15:52;;;;;;;1.20;1.10;;;;;;;3.27;100.00;94861.91;4923842;29;20246;-87
2021/12/28 02:18:22;;;;;;;3.20;1.37;;;;;;;3.19;100.00;94862.19;4944692;28;20296;-88
2021/12/28 02:20:52;;;;;;;1.33;1.20;;;;;;;3.18;100.00;94849.88;4943929;28;20274;-87
2021/12/28 02:23:20;;;;;;;1.50;1.40;;;;;;;3.22;100.00;94853.75;4942088;28;20272;-87
2021/12/28 02:25:47;;;;;;;2.30;1.47;;;;;;;3.19;100.00;94847.00;4927187;29;20217;-88
2021/12/28 02:28:15;;;;;;;1.57;1.40;;;;;;;3.22;100.00;94851.09;4928014;29;20240;-87
2021/12/28 02:30:46;;;;;;;1.30;1.07;;;;;;;3.23;100.00;94847.41;4927747;29;20209;-88
2021/12/28 02:33:14;;;;;;;1.50;1.40;;;;;;;3.19;100.00;94849.69;4927862;29;20234;-87
2021/12/28 02:35:42;;;;;;;1.30;1.20;;;;;;;3.15;100.00;94847.69;4926598;29;20329;-88
2021/12/28 02:38:12;;;;;;;1.40;1.30;;;;;;;3.16;100.00;94839.44;4926924;29;20304;-88
2021/12/28 02:40:42;;;;;;;1.90;1.50;;;;;;;3.14;100.00;94835.38;4943500;28;20248;-87
2021/12/28 02:43:11;;;;;;;2.43;1.40;;;;;;;3.06;100.00;94825.00;4922765;29;20293;-87
2021/12/28 02:45:41;;;;;;;1.90;1.40;;;;;;;3.06;100.00;94831.16;4927130;29;20220;-88
2021/12/28 02:48:08;;;;;;;1.57;1.40;;;;;;;2.98;100.00;94829.56;4925916;29;20270;-88
2021/12/28 02:50:39;;;;;;;1.47;1.33;;;;;;;2.99;100.00;94820.53;4920504;29;20205;-88
2021/12/28 02:53:07;;;;;;;1.80;1.50;;;;;;;2.98;100.00;94836.75;4944071;29;20228;-88
2021/12/28 02:55:36;;;;;;;1.50;1.40;;;;;;;2.98;100.00;94829.56;4928825;29;20210;-88
2021/12/28 02:58:07;;;;;;;2.20;1.57;;;;;;;2.96;100.00;94826.34;4925218;29;20209;-87
2021/12/28 03:00:36;;;;;;;1.63;1.40;;;;;;;3.01;100.00;94817.66;4928209;29;20290;-88
2021/12/28 03:03:09;;;;;;;1.37;1.27;;;;;;;2.96;100.00;94825.50;4941467;28;20209;-88
2021/12/28 03:05:37;;;;;;;1.53;1.37;;;;;;;2.95;100.00;94824.69;4925774;29;20213;-88
2021/12/28 03:08:05;;;;;;;1.50;1.40;;;;;;;2.97;100.00;94817.31;4928128;29;20194;-87
2021/12/28 03:10:35;;;;;;;1.87;1.63;;;;;;;2.99;100.00;94817.88;4922884;29;20230;-87
2021/12/28 03:13:02;;;;;;;1.53;1.43;;;;;;;2.99;100.00;94822.38;4941896;28;20397;-88
2021/12/28 03:15:29;;;;;;;1.77;1.50;;;;;;;3.02;100.00;94827.28;4925903;29;20218;-88
2021/12/28 03:17:56;;;;;;;2.40;1.70;;;;;;;2.99;100.00;94825.88;4925833;29;20202;-88
2021/12/28 03:20:24;;;;;;;2.17;1.70;;;;;;;2.98;100.00;94832.22;4918570;29;20294;-88
2021/12/28 03:22:51;;;;;;;4.63;2.60;;;;;;;3.04;100.00;94820.72;4926374;29;20272;-88
2021/12/28 03:25:18;;;;;;;3.40;2.00;;;;;;;3.03;100.00;94821.75;4946354;29;20220;-88
2021/12/28 03:27:47;;;;;;;2.23;2.00;;;;;;;3.03;100.00;94816.41;4928883;29;20225;-88
2021/12/28 03:30:17;;;;;;;1.80;1.70;;;;;;;3.08;100.00;94812.25;4929581;28;20282;-87
2021/12/28 03:32:44;;;;;;;1.57;1.40;;;;;;;3.11;100.00;94806.47;4928482;29;20237;-87
2021/12/28 03:35:14;;;;;;;2.90;1.90;;;;;;;3.10;100.00;94813.66;4924608;29;20272;-87
2021/12/28 03:37:42;;;;;;;1.97;1.77;;;;;;;3.21;100.00;94823.59;4923811;29;20206;-87
2021/12/28 03:40:14;;;;;;;2.43;1.70;;;;;;;3.17;100.00;94822.41;4929761;29;20210;-87
2021/12/28 03:42:43;;;;;;;1.90;1.60;;;;;;;3.17;100.00;94805.59;4930360;29;20299;-87
2021/12/28 03:45:13;;;;;;;1.90;1.67;;;;;;;3.19;100.00;94819.53;4930386;29;20292;-88
2021/12/28 03:47:40;;;;;;;1.97;1.60;;;;;;;3.26;100.00;94826.41;4926901;29;20608;-87
2021/12/28 03:50:09;;;;;;;1.57;1.30;;;;;;;3.30;100.00;94834.78;4923395;29;20362;-87
2021/12/28 03:52:37;;;;;;;1.67;1.50;;;;;;;3.30;100.00;94832.13;4925225;29;20222;-87
2021/12/28 03:55:05;;;;;;;2.63;1.60;;;;;;;3.32;100.00;94836.19;4941851;29;20300;-88
2021/12/28 03:57:33;;;;;;;2.37;1.90;;;;;;;3.34;100.00;94836.78;4936282;29;20304;-87
2021/12/28 04:00:00;;;;;;;2.47;1.50;;;;;;;3.43;100.00;94839.97;4931489;29;20237;-88
2021/12/28 04:02:29;;;;;;;2.90;1.50;;;;;;;3.46;100.00;94838.72;4928006;29;20269;-87
2021/12/28 04:04:56;;;;;;;2.83;1.70;;;;;;;3.40;100.00;94837.78;4921521;29;20221;-87
2021/12/28 04:07:23;;;;;;;2.07;1.60;;;;;;;3.40;100.00;94840.44;4928781;29;20220;-88
2021/12/28 04:10:03;;;;;;;2.20;1.63;;;;;;;3.42;100.00;94852.50;4935981;29;20260;-88
2021/12/28 04:12:31;;;;;;;2.20;1.93;;;;;;;3.42;100.00;94846.34;4925537;28;20205;-88
2021/12/28 04:14:59;;;;;;;2.10;1.90;;;;;;;3.44;100.00;94849.59;4930266;29;20228;-87
2021/12/28 04:17:27;;;;;;;2.57;2.00;;;;;;;3.42;100.00;94851.69;4925293;29;20269;-88
2021/12/28 04:19:57;;;;;;;2.43;1.60;;;;;;;3.42;100.00;94857.00;4927444;29;20221;-88
2021/12/28 04:22:24;;;;;;;1.87;1.70;;;;;;;3.36;100.00;94852.56;4939156;28;20470;-88
2021/12/28 04:24:51;;;;;;;2.10;1.90;;;;;;;3.36;100.00;94857.91;4937872;29;20310;-87
2021/12/28 04:27:18;;;;;;;2.30;1.87;;;;;;;3.42;100.00;94865.03;4929449;29;20283;-88
2021/12/28 04:29:46;;;;;;;3.17;2.73;;;;;;;3.42;100.00;94876.50;4919079;29;20218;-87
2021/12/28 04:32:13;;;;;;;3.50;2.03;;;;;;;3.41;100.00;94884.72;4927391;29;20210;-88
2021/12/28 04:34:40;;;;;;;2.57;1.83;;;;;;;3.46;100.00;94895.56;4925270;29;20257;-87
2021/12/28 04:37:09;;;;;;;2.67;1.70;;;;;;;3.45;100.00;94885.94;4924520;29;20300;-87
2021/12/28 04:39:36;;;;;;;1.80;1.50;;;;;;;3.46;100.00;94895.56;4943462;29;20220;-88
2021/12/28 04:42:04;;;;;;;2.33;1.87;;;;;;;3.48;100.00;94909.50;4938927;28;20238;-87
2021/12/28 04:44:31;;;;;;;2.00;1.80;;;;;;;3.45;100.00;94915.28;4927549;29;20269;-87
2021/12/28 04:46:59;;;;;;;2.43;1.80;;;;;;;3.48;100.00;94914.84;4937217;29;20210;-88
2021/12/28 04:49:28;;;;;;;2.20;2.00;;;;;;;3.47;100.00;94915.88;4929279;29;20206;-88
2021/12/28 04:51:55;;;;;;;3.30;1.70;;;;;;;3.46;100.00;94932.09;4927753;29;20213;-88
2021/12/28 04:54:24;;;;;;;2.60;1.97;;;;;;;3.51;100.00;94925.06;4931434;29;20233;-88
2021/12/28 04:56:51;;;;;;;1.97;1.53;;;;;;;3.50;100.00;94925.28;4929689;29;20210;-87
2021/12/28 04:59:19;;;;;;;2.13;1.80;;;;;;;3.55;100.00;94931.59;4930715;29;20206;-87
2021/12/28 05:01:47;;;;;;;3.20;2.10;;;;;;;3.59;100.00;94914.09;4925027;29;20218;-87
2021/12/28 05:04:14;;;;;;;4.17;2.30;;;;;;;3.55;100.00;94910.25;4930346;29;20206;-88
2021/12/28 05:06:42;;;;;;;2.40;2.20;;;;;;;3.61;100.00;94917.38;4930933;29;20228;-87
2021/12/28 05:09:11;;;;;;;2.40;2.10;;;;;;;3.65;100.00;94913.22;4934963;29;20293;-87
2021/12/28 05:11:40;;;;;;;2.53;1.90;;;;;;;3.70;100.00;94916.03;4928066;29;20216;-87
2021/12/28 05:14:08;;;;;;;5.07;2.13;;;;;;;3.69;100.00;94917.06;4923115;29;20231;-87
2021/12/28 05:16:36;;;;;;;2.00;1.80;;;;;;;3.78;100.00;94925.59;4928210;28;20221;-88
2021/12/28 05:19:05;;;;;;;3.07;1.80;;;;;;;3.76;100.00;94917.81;4930605;29;20367;-87
2021/12/28 05:21:33;;;;;;;1.90;1.70;;;;;;;3.89;100.00;94937.41;4933092;29;20209;-88
2021/12/28 05:24:00;;;;;;;3.77;2.03;;;;;;;3.94;100.00;94925.00;4934048;29;20300;-87
2021/12/28 05:26:27;;;;;;;1.57;1.33;;;;;;;3.93;100.00;94934.03;4926872;29;20510;-87
2021/12/28 05:28:57;;;;;;;1.90;1.60;;;;;;;3.96;100.00;94935.47;4933708;29;20320;-88
2021/12/28 05:31:25;;;;;;;2.00;1.57;;;;;;;3.92;100.00;94953.78;4918490;29;20261;-87
2021/12/28 05:33:53;;;;;;;1.97;1.50;;;;;;;3.94;100.00;94937.53;4946062;28;20277;-87
2021/12/28 05:36:21;;;;;;;3.20;1.80;;;;;;;3.95;100.00;94939.16;4930931;29;20327;-87
2021/12/28 05:38:48;;;;;;;2.17;1.70;;;;;;;3.93;100.00;94934.03;4945978;28;20205;-87
2021/12/28 05:41:15;;;;;;;2.27;1.70;;;;;;;3.94;100.00;94940.19;4929500;29;20313;-88
2021/12/28 05:43:43;;;;;;;2.03;1.70;;;;;;;3.93;100.00;94933.22;4938856;29;20232;-88
2021/12/28 05:46:11;;;;;;;2.30;1.90;;;;;;;3.99;100.00;94943.84;4930360;29;20216;-87
2021/12/28 05:48:39;;;;;;;3.87;2.00;;;;;;;3.96;100.00;94935.47;4922756;29;20238;-87
2021/12/28 05:51:06;;;;;;;2.23;2.03;;;;;;;3.97;100.00;94963.78;4931820;29;20296;-88
2021/12/28 05:53:33;;;;;;;3.43;2.40;;;;;;;3.99;100.00;94956.38;4926647;29;20240;-88
2021/12/28 05:56:00;;;;;;;2.53;2.27;;;;;;;3.91;100.00;94951.34;4947386;29;20206;-87
2021/12/28 05:58:27;;;;;;;2.10;1.90;;;;;;;3.93;100.00;94957.25;4926484;29;20210;-88
2021/12/28 06:00:54;;;;;;;3.07;2.50;;;;;;;3.92;100.00;94953.78;4919689;29;20224;-89
2021/12/28 06:03:23;;;;;;;3.40;2.17;;;;;;;3.93;100.00;94926.03;4925116;29;20201;-87
2021/12/28 06:05:50;;;;;;;1.10;1.00;;;;;;;4.52;100.00;94935.94;4931936;29;20222;-88
2021/12/28 06:08:17;;;;;;;5.00;2.50;;;;;;;4.63;100.00;94955.75;4943928;28;20212;-88
2021/12/28 06:10:45;;;;;;;1.60;1.37;;;;;;;4.87;100.00;94940.59;4943273;28;20256;-88
2021/12/28 06:13:12;;;;;;;0.50;0.50;;;;;;;6.21;100.00;94936.19;4929634;29;20207;-88
2021/12/28 06:15:39;;;;;;;0.40;0.40;;;;;;;7.44;100.00;94948.84;4924923;29;20311;-88
2021/12/28 06:18:06;;;;;;;0.40;0.40;;;;;;;8.10;100.00;94958.69;4928531;28;20317;-89
2021/12/28 06:20:37;;;;;;;0.60;0.60;;;;;;;8.55;100.00;94955.00;4930763;29;20218;-88
2021/12/28 06:23:04;;;;;;;0.40;0.40;;;;;;;8.58;100.00;94979.53;4928259;29;20209;-89
2021/12/28 06:25:33;;;;;;;0.50;0.50;;;;;;;8.70;100.00;94965.91;4925145;29;20206;-89
2021/12/28 06:28:00;;;;;;;0.50;0.50;;;;;;;8.84;100.00;94969.03;4925038;29;20229;-89
2021/12/28 06:30:28;;;;;;;0.50;0.50;;;;;;;8.77;100.00;94953.06;4929954;29;20214;-90
2021/12/28 06:32:55;;;;;;;0.40;0.40;;;;;;;8.75;100.00;94959.78;4927382;29;20297;-88
2021/12/28 06:35:25;;;;;;;0.40;0.40;;;;;;;9.06;97.86;94977.88;4925335;29;20310;-89
2021/12/28 06:37:53;;;;;;;0.40;0.40;;;;;;;9.17;96.74;94960.78;4930929;29;20209;-90
2021/12/28 06:40:21;;;;;;;1.13;0.50;;;;;;;9.24;95.65;94963.25;4919408;29;20206;-91
2021/12/28 06:42:48;;;;;;;0.40;0.40;;;;;;;9.36;93.77;94936.94;4941339;28;20210;-89
2021/12/28 06:45:15;;;;;;;0.57;0.50;;;;;;;9.27;94.61;94936.59;4927209;28;20277;-90
2021/12/28 06:47:43;;;;;;;0.40;0.40;;;;;;;9.33;93.89;94949.06;4933331;29;20209;-89
2021/12/28 06:50:10;;;;;;;0.40;0.40;;;;;;;9.35;92.44;94949.63;4930742;29;20206;-88
2021/12/28 06:52:38;;;;;;;0.50;0.50;;;;;;;9.41;93.78;94955.84;4928496;29;20330;-89
2021/12/28 06:55:09;;;;;;;0.50;0.50;;;;;;;9.30;92.90;94952.25;4924083;29;20226;-89
2021/12/28 06:57:37;;;;;;;0.60;0.60;;;;;;;9.33;91.66;94935.59;4943635;28;20269;-90
2021/12/28 07:00:06;;;;;;;0.40;0.40;;;;;;;9.48;89.16;94914.16;4928337;29;20229;-90
2021/12/28 07:02:33;;;;;;;0.50;0.50;;;;;;;9.56;87.69;94912.88;4926114;29;20346;-89
2021/12/28 07:05:00;;;;;;;0.80;0.50;;;;;;;9.70;86.83;94899.75;4925289;29;20240;-89
2021/12/28 07:07:27;;;;;;;0.70;0.50;;;;;;;9.77;85.96;94898.47;4922812;29;20210;-89
2021/12/28 07:09:54;;;;;;;1.13;0.60;;;;;;;9.65;86.76;94905.13;4926402;29;20297;-89
2021/12/28 07:12:23;;;;;;;0.40;0.40;;;;;;;9.66;86.78;94912.94;4922365;28;20222;-89
2021/12/28 07:14:50;;;;;;;0.50;0.50;;;;;;;9.63;88.97;94889.19;4923757;29;20236;-88
2021/12/28 07:17:17;;;;;;;0.50;0.50;;;;;;;9.44;92.23;94879.94;4928148;29;20210;-88
2021/12/28 07:19:46;;;;;;;0.40;0.40;;;;;;;9.43;88.83;94886.38;4935583;29;20260;-88
2021/12/28 07:22:13;;;;;;;0.40;0.40;;;;;;;9.59;89.40;94871.13;4929335;29;20208;-89
2021/12/28 07:24:40;;;;;;;0.63;0.63;;;;;;;9.55;89.95;94881.59;4930824;29;20237;-89
2021/12/28 07:27:08;;;;;;;0.60;0.60;;;;;;;9.70;88.54;94884.38;4929394;28;20213;-89
2021/12/28 07:29:36;;;;;;;0.60;0.60;;;;;;;9.48;89.66;94889.09;4924062;29;20427;-88
2021/12/28 07:32:04;;;;;;;0.50;0.50;;;;;;;9.67;86.75;94895.72;4929012;29;20213;-87
2021/12/28 07:34:32;;;;;;;0.50;0.50;;;;;;;9.55;89.10;94897.78;4932530;29;20217;-88
2021/12/28 07:37:00;;;;;;;0.40;0.40;;;;;;;9.64;88.82;94890.00;4934772;29;20211;-88
2021/12/28 07:39:27;;;;;;;0.50;0.50;;;;;;;9.60;87.89;94889.75;4925692;28;20229;-88
2021/12/28 07:41:56;;;;;;;0.50;0.50;;;;;;;9.54;90.28;94889.94;4928782;29;20264;-88
2021/12/28 07:44:25;;;;;;;1.17;0.80;;;;;;;9.25;98.32;94897.56;4927776;29;20248;-89
2021/12/28 07:46:55;;;;;;;2.13;1.70;;;;;;;9.13;97.85;94915.75;4922875;29;20195;-88
2021/12/28 07:49:25;;;;;;;2.37;1.13;;;;;;;8.82;100.00;94928.09;4922337;29;20220;-89
2021/12/28 07:51:53;;;;;;;1.07;0.80;;;;;;;8.66;100.00;94927.16;4929345;29;20218;-89
2021/12/28 07:54:20;;;;;;;0.90;0.90;;;;;;;8.53;100.00;94938.28;4922095;29;20229;-89
2021/12/28 07:56:47;;;;;;;0.83;0.60;;;;;;;8.46;100.00;94956.50;4924397;29;20293;-88
2021/12/28 07:59:15;;;;;;;0.80;0.77;;;;;;;8.39;100.00;94977.38;4932556;29;20280;-88
2021/12/28 08:01:58;;;;;;;0.70;0.70;;;;;;;8.12;100.00;94996.91;4929776;29;20201;-90
2021/12/28 08:04:39;;;;;;;0.50;0.50;;;;;;;7.93;100.00;94984.78;4924788;29;20241;-89
2021/12/28 08:07:11;;;;;;;0.60;0.60;;;;;;;7.83;100.00;94987.31;4919968;29;20210;-90
2021/12/28 08:09:40;;;;;;;0.90;0.80;;;;;;;7.70;100.00;95003.78;4927536;29;20305;-88
2021/12/28 08:12:08;;;;;;;0.70;0.67;;;;;;;7.77;100.00;95017.88;4922621;29;20209;-88
2021/12/28 08:14:36;;;;;;;0.87;0.70;;;;;;;7.53;100.00;95019.91;4919968;29;20225;-89
2021/12/28 08:17:03;;;;;;;2.20;0.90;;;;;;;7.39;100.00;95034.72;4926290;29;20209;-90
2021/12/28 08:19:32;;;;;;;1.00;0.77;;;;;;;7.25;100.00;95039.56;4919118;29;20214;-88
2021/12/28 08:21:59;;;;;;;1.10;0.90;;;;;;;7.24;100.00;95043.28;4933063;29;20217;-90
2021/12/28 08:24:33;;;;;;;3.13;1.00;;;;;;;7.17;100.00;95059.56;4934429;29;20209;-89
2021/12/28 08:27:01;;;;;;;4.50;2.77;;;;;;;7.21;100.00;95059.91;4934681;29;20292;-89
2021/12/28 08:29:37;;;;;;;4.97;2.17;;;;;;;7.22;100.00;95053.47;4920707;29;20225;-88
2021/12/28 08:32:06;;;;;;;2.27;1.70;;;;;;;7.14;100.00;95033.22;4922807;29;20231;-89
2021/12/28 08:34:34;;;;;;;3.17;2.00;;;;;;;7.08;100.00;95036.00;4925742;29;20233;-90
2021/12/28 08:37:01;;;;;;;3.73;2.40;;;;;;;7.06;100.00;95025.53;4930608;29;20241;-88
2021/12/28 08:39:28;;;;;;;3.73;2.57;;;;;;;7.06;100.00;95016.69;4930671;29;20303;-88
2021/12/28 08:41:56;;;;;;;1.67;1.10;;;;;;;7.02;100.00;94980.63;4925111;29;20225;-89
2021/12/28 08:44:27;;;;;;;4.50;1.93;;;;;;;6.99;100.00;94965.81;4944550;28;20221;-89
2021/12/28 08:46:54;;;;;;;16.93;9.27;;;;;;;7.04;100.00;94962.44;4926224;29;20205;-91
2021/12/28 08:49:22;;;;;;;7.90;3.93;;;;;;;7.03;100.00;94950.88;4928496;29;20216;-91
2021/12/28 08:51:50;;;;;;;0.90;0.70;;;;;;;7.11;100.00;94955.03;4931278;29;20316;-92
2021/12/28 08:54:18;;;;;;;0.67;0.67;;;;;;;7.33;100.00;94984.66;4943832;28;20229;-91
2021/12/28 08:56:51;;;;;;;2.47;0.80;;;;;;;7.44;100.00;95010.63;4930157;29;20210;-91
2021/12/28 08:59:19;;;;;;;1.83;0.90;;;;;;;7.52;100.00;95024.47;4930872;29;20228;-91
2021/12/28 09:01:49;;;;;;;1.47;1.20;;;;;;;7.55;100.00;95012.44;4936304;29;20236;-92
2021/12/28 09:04:16;;;;;;;1.93;1.40;;;;;;;7.54;100.00;95022.34;4924067;29;20257;-92
2021/12/28 09:06:44;;;;;;;3.07;1.20;;;;;;;7.49;100.00;95037.56;4931322;29;20272;-91
2021/12/28 09:09:12;;;;;;;1.60;0.80;;;;;;;7.41;100.00;95009.22;4944643;29;20206;-90
2021/12/28 09:11:42;;;;;;;2.10;1.20;;;;;;;7.40;100.00;95004.13;4937620;29;20217;-90
2021/12/28 09:14:12;;;;;;;1.33;1.00;;;;;;;7.40;100.00;95015.66;4930274;29;20202;-91
2021/12/28 09:16:43;;;;;;;1.67;0.90;;;;;;;7.54;100.00;95033.09;4935119;29;20229;-91
2021/12/28 09:19:10;;;;;;;1.07;0.70;;;;;;;7.55;100.00;95061.59;4942687;28;20209;-91
2021/12/28 09:21:40;;;;;;;1.53;1.10;;;;;;;7.47;100.00;95088.84;4923537;29;20300;-92
2021/12/28 09:24:15;;;;;;;5.53;1.53;;;;;;;7.40;100.00;95095.41;4942199;28;20300;-91
2021/12/28 09:26:49;;;;;;;3.80;1.87;;;;;;;7.34;100.00;95083.75;4934349;28;20202;-91
2021/12/28 09:29:19;;;;;;;6.83;2.47;;;;;;;7.32;100.00;95075.13;4930900;29;20260;-92
2021/12/28 09:31:51;;;;;;;2.97;1.90;;;;;;;7.31;100.00;95070.84;4935641;29;20213;-93
2021/12/28 09:34:37;;;;;;;2.17;1.50;;;;;;;7.38;100.00;95050.00;4928262;29;20301;-92
2021/12/28 09:37:10;;;;;;;7.80;4.20;;;;;;;7.52;100.00;95024.47;4926319;29;20220;-92
2021/12/28 09:39:58;;;;;;;4.97;3.10;;;;;;;7.47;100.00;94992.16;4933892;28;20221;-92
2021/12/28 09:42:51;;;;;;;4.63;2.70;;;;;;;7.50;100.00;95009.63;4931820;29;20216;-91
2021/12/28 09:45:19;;;;;;;3.33;2.10;;;;;;;7.51;100.00;95035.44;4934782;29;20242;-92
2021/12/28 09:47:49;;;;;;;2.73;1.83;;;;;;;7.56;100.00;95057.03;4937884;29;20206;-92
2021/12/28 09:50:17;;;;;;;4.83;1.70;;;;;;;7.61;100.00;95057.09;4928107;29;20246;-90
2021/12/28 09:52:50;;;;;;;3.10;1.50;;;;;;;7.63;100.00;95060.38;4930018;29;20572;-91
2021/12/28 09:55:19;;;;;;;2.80;1.83;;;;;;;7.66;100.00;95076.00;4930078;29;20228;-92
2021/12/28 09:57:55;;;;;;;4.03;2.40;;;;;;;7.65;100.00;95078.94;4931309;29;20209;-91
2021/12/28 10:00:36;;;;;;;4.67;3.63;;;;;;;7.62;100.00;95072.16;4927110;29;20258;-91
2021/12/28 10:03:03;;;;;;;2.73;2.37;;;;;;;7.70;100.00;95071.78;4941088;29;20221;-91
2021/12/28 10:05:36;;;;;;;3.63;2.30;;;;;;;7.61;100.00;95075.91;4926214;29;20277;-89
2021/12/28 10:08:13;;;;;;;2.70;2.10;;;;;;;7.66;100.00;95083.22;4928312;29;20197;-89
2021/12/28 10:10:49;;;;;;;4.03;2.03;;;;;;;7.63;100.00;95083.72;4920388;29;20311;-89
2021/12/28 10:13:23;;;;;;;4.60;3.00;;;;;;;7.62;100.00;95082.09;4928101;29;20244;-90
2021/12/28 10:15:53;;;;;;;3.93;3.00;;;;;;;7.57;100.00;95080.94;4929898;29;20235;-89
2021/12/28 10:18:30;;;;;;;5.27;3.20;;;;;;;7.55;100.00;95082.25;4933376;29;20304;-89
2021/12/28 10:21:02;;;;;;;4.90;3.50;;;;;;;7.58;100.00;95109.44;4931929;29;20224;-88
2021/12/28 10:23:32;;;;;;;6.23;3.50;;;;;;;7.59;100.00;95110.25;4929618;29;20253;-88
2021/12/28 10:26:01;;;;;;;6.23;4.17;;;;;;;7.56;100.00;95083.91;4924118;29;20210;-88
2021/12/28 10:28:33;;;;;;;5.03;4.10;;;;;;;7.55;100.00;95109.94;4930225;29;20237;-89
2021/12/28 10:31:03;;;;;;;5.67;2.90;;;;;;;7.59;100.00;95110.25;4931376;29;20256;-88
2021/12/28 10:33:33;;;;;;;2.73;2.17;;;;;;;7.71;100.00;95116.38;4927296;29;20202;-89
2021/12/28 10:36:03;;;;;;;0.87;0.87;;;;;;;7.78;100.00;95118.91;4939084;29;20234;-88
2021/12/28 10:38:32;;;;;;;0.90;0.80;;;;;;;7.86;100.00;95121.19;4928023;29;20218;-88
2021/12/28 10:41:02;;;;;;;0.90;0.90;;;;;;;7.86;100.00;95108.59;4933707;29;20222;-88
2021/12/28 10:43:34;;;;;;;2.37;1.90;;;;;;;7.95;100.00;95103.63;4939014;28;20213;-90
2021/12/28 10:46:04;;;;;;;4.17;2.67;;;;;;;7.97;100.00;95091.56;4924873;29;20214;-88
2021/12/28 10:48:36;;;;;;;4.63;2.50;;;;;;;7.97;100.00;95069.25;4931825;29;20265;-89
2021/12/28 10:51:07;;;;;;;4.10;2.00;;;;;;;8.00;100.00;95066.06;4922159;29;20220;-89
2021/12/28 10:53:55;;;;;;;3.37;2.00;;;;;;;7.99;100.00;95084.06;4929042;29;20206;-88
2021/12/28 10:56:23;;;;;;;2.83;1.80;;;;;;;7.96;100.00;95089.13;4926335;29;20225;-89
2021/12/28 10:58:55;;;;;;;1.33;1.17;;;;;;;7.91;100.00;95091.75;4923230;29;20209;-89
2021/12/28 11:01:25;;;;;;;1.23;1.10;;;;;;;7.93;100.00;95097.66;4923484;29;20234;-88
2021/12/28 11:04:00;;;;;;;1.30;1.10;;;;;;;7.99;100.00;95085.97;4918185;28;20217;-89
2021/12/28 11:06:34;;;;;;;3.53;1.40;;;;;;;8.04;100.00;95043.03;4942086;29;20276;-89
2021/12/28 11:09:07;;;;;;;3.13;1.93;;;;;;;8.03;100.00;95019.88;4929490;29;20300;-88
2021/12/28 11:11:35;;;;;;;6.37;2.20;;;;;;;8.17;100.00;95001.53;4933316;28;20213;-89
2021/12/28 11:14:08;;;;;;;5.87;2.00;;;;;;;8.17;100.00;94988.88;4924706;29;20232;-88
2021/12/28 11:16:39;;;;;;;5.73;2.77;;;;;;;8.25;100.00;94991.16;4926585;29;20229;-90
2021/12/28 11:19:11;;;;;;;2.80;2.10;;;;;;;8.25;100.00;94998.44;4929427;29;20277;-89
2021/12/28 11:21:40;;;;;;;2.70;1.50;;;;;;;8.25;100.00;95001.91;4924385;29;20543;-90
2021/12/28 11:24:13;;;;;;;3.00;1.90;;;;;;;8.32;100.00;95005.28;4920377;29;20198;-89
2021/12/28 11:26:43;;;;;;;2.63;1.93;;;;;;;8.40;100.00;95008.59;4924185;29;20212;-88
2021/12/28 11:29:15;;;;;;;3.30;1.37;;;;;;;8.33;100.00;94998.03;4925542;29;20229;-88
2021/12/28 11:31:44;;;;;;;3.20;1.20;;;;;;;8.42;100.00;95011.88;4922887;29;20300;-91
2021/12/28 11:34:21;;;;;;;1.83;1.40;;;;;;;8.47;100.00;95017.28;4922202;29;20269;-92
2021/12/28 11:36:54;;;;;;;2.37;1.10;;;;;;;8.41;100.00;95031.75;4928091;29;20242;-92
2021/12/28 11:42:21;;;;;;;4.67;4.00;;;;;;;8.29;100.00;95019.19;4942349;29;20218;-92
2021/12/28 11:45:06;;;;;;;8.77;5.70;;;;;;;8.30;100.00;95025.38;4919836;29;20207;-91
2021/12/28 11:48:16;;;;;;;2.13;1.50;;;;;;;8.29;100.00;95024.56;4918058;29;20222;-93
2021/12/28 11:51:09;;;;;;;0.90;0.80;;;;;;;8.24;100.00;94994.94;4831540;29;20216;-92